createdAt,value
2023-04-12T00:01:14.348Z,0.04
2023-04-12T00:03:41.302Z,0.07
2023-04-12T00:06:08.826Z,0.08
2023-04-12T00:08:35.658Z,0.45
2023-04-12T00:11:03.151Z,0.29
2023-04-12T00:13:30.450Z,0.24
2023-04-12T00:15:57.367Z,0.17
2023-04-12T00:18:25.889Z,0.54
2023-04-12T00:20:53.188Z,0.51
2023-04-12T00:23:20.246Z,0.66
2023-04-12T00:25:47.167Z,0.62
2023-04-12T00:28:14.092Z,0.72
2023-04-12T00:30:40.794Z,0.74
2023-04-12T00:33:07.874Z,0.59
2023-04-12T00:35:36.138Z,0.37
2023-04-12T00:38:03.057Z,0.31
2023-04-12T00:40:29.902Z,0.21
2023-04-12T00:42:56.621Z,0.16
2023-04-12T00:45:23.584Z,0.21
2023-04-12T00:47:50.420Z,0.16
2023-04-12T00:50:17.302Z,0.13
2023-04-12T00:52:45.989Z,0.12
2023-04-12T00:55:12.877Z,0.29
2023-04-12T00:57:40.439Z,0.17
2023-04-12T01:00:10.046Z,0.50
2023-04-12T01:02:37.154Z,0.27
2023-04-12T01:05:05.084Z,0.14
2023-04-12T01:07:45.351Z,0.12
2023-04-12T01:10:28.537Z,0.15
2023-04-12T01:13:05.201Z,0.45
2023-04-12T01:15:34.347Z,0.33
2023-04-12T01:18:05.601Z,0.48
2023-04-12T01:20:37.827Z,0.29
2023-04-12T01:23:18.057Z,0.15
2023-04-12T01:26:09.730Z,0.12
2023-04-12T01:28:41.320Z,0.46
2023-04-12T01:31:08.945Z,0.34
2023-04-12T01:33:38.529Z,0.23
2023-04-12T01:36:11.702Z,0.12
2023-04-12T01:38:39.500Z,0.11
2023-04-12T01:41:07.553Z,0.06
2023-04-12T01:43:39.864Z,0.16
2023-04-12T01:46:08.474Z,0.13
2023-04-12T01:48:35.412Z,0.10
2023-04-12T01:51:05.961Z,0.18
2023-04-12T01:53:43.581Z,0.58
2023-04-12T01:56:11.587Z,0.43
2023-04-12T01:58:41.327Z,0.28
2023-04-12T02:01:12.527Z,0.24
2023-04-12T02:03:41.771Z,0.18
2023-04-12T02:06:09.581Z,0.15
2023-04-12T02:08:36.534Z,0.19
2023-04-12T02:11:08.530Z,0.56
2023-04-12T02:13:35.422Z,0.51
2023-04-12T02:16:02.303Z,0.74
2023-04-12T02:18:30.533Z,0.84
2023-04-12T02:20:57.252Z,0.49
2023-04-12T02:23:24.053Z,0.27
2023-04-12T02:25:50.759Z,0.20
2023-04-12T02:28:17.537Z,0.30
2023-04-12T02:30:44.417Z,0.24
2023-04-12T02:33:11.332Z,0.76
2023-04-12T02:35:39.602Z,0.85
2023-04-12T02:38:06.349Z,1.07
2023-04-12T02:40:33.298Z,0.62
2023-04-12T02:43:00.005Z,0.38
2023-04-12T02:45:27.212Z,0.25
2023-04-12T02:47:54.060Z,0.18
2023-04-12T02:50:20.825Z,0.21
2023-04-12T02:52:48.956Z,0.15
2023-04-12T02:55:15.939Z,0.17
2023-04-12T02:57:44.407Z,0.22
2023-04-12T03:00:12.468Z,0.21
2023-04-12T03:02:39.401Z,6.62
2023-04-12T03:05:07.115Z,3.80
2023-04-12T03:07:33.886Z,2.11
2023-04-12T03:10:02.651Z,1.49
2023-04-12T03:12:29.383Z,0.86
2023-04-12T03:14:56.107Z,2.63
2023-04-12T03:17:22.918Z,1.72
2023-04-12T03:19:49.700Z,1.20
2023-04-12T03:22:16.512Z,1.10
2023-04-12T03:24:43.232Z,0.70
2023-04-12T03:27:11.463Z,1.06
2023-04-12T03:29:38.323Z,0.67
2023-04-12T03:32:05.076Z,1.47
2023-04-12T03:34:31.785Z,0.93
2023-04-12T03:36:58.621Z,1.16
2023-04-12T03:39:25.382Z,0.66
2023-04-12T03:41:52.354Z,0.35
2023-04-12T03:44:20.655Z,0.36
2023-04-12T03:46:47.664Z,0.19
2023-04-12T03:49:14.738Z,0.30
2023-04-12T03:51:41.526Z,0.41
2023-04-12T03:54:09.318Z,0.60
2023-04-12T03:56:36.097Z,0.32
2023-04-12T03:59:02.879Z,0.43
2023-04-12T04:01:31.069Z,0.39
2023-04-12T04:03:58.149Z,0.47
2023-04-12T04:06:25.319Z,0.40
2023-04-12T04:08:52.304Z,0.48
2023-04-12T04:11:19.083Z,0.79
2023-04-12T04:13:45.963Z,1.01
2023-04-12T04:16:12.793Z,1.10
2023-04-12T04:18:41.055Z,1.36
2023-04-12T04:21:08.101Z,1.89
2023-04-12T04:23:34.964Z,1.16
2023-04-12T04:26:01.690Z,1.30
2023-04-12T04:28:28.806Z,0.79
2023-04-12T04:30:55.647Z,0.54
2023-04-12T04:33:22.387Z,0.48
2023-04-12T04:35:50.605Z,0.54
2023-04-12T04:38:17.410Z,0.40
2023-04-12T04:40:44.216Z,0.42
2023-04-12T04:43:10.971Z,1.17
2023-04-12T04:45:37.907Z,0.66
2023-04-12T04:48:05.344Z,0.92
2023-04-12T04:50:32.112Z,0.85
2023-04-12T04:53:00.244Z,0.77
2023-04-12T04:55:26.969Z,0.52
2023-04-12T04:57:53.775Z,0.36
2023-04-12T05:00:20.678Z,0.45
2023-04-12T05:02:48.348Z,1.14
2023-04-12T05:05:15.203Z,0.90
2023-04-12T05:07:42.281Z,1.42
2023-04-12T05:10:11.209Z,0.86
2023-04-12T05:12:38.014Z,0.71
2023-04-12T05:15:11.665Z,0.47
2023-04-12T05:20:06.858Z,4.32
2023-04-12T05:22:33.813Z,4.14
2023-04-12T05:25:00.632Z,2.88
2023-04-12T05:27:29.816Z,3.18
2023-04-12T05:29:56.689Z,2.85
2023-04-12T05:32:23.931Z,2.20
2023-04-12T05:34:50.677Z,1.28
2023-04-12T05:37:17.560Z,0.97
2023-04-12T05:39:44.394Z,0.69
2023-04-12T05:42:11.161Z,1.84
2023-04-12T05:44:39.545Z,1.74
2023-04-12T05:47:06.316Z,2.54
2023-04-12T05:49:33.217Z,2.16
2023-04-12T05:51:59.941Z,1.54
2023-04-12T05:54:26.817Z,1.37
2023-04-12T05:56:53.706Z,1.01
2023-04-12T05:59:20.767Z,0.89
2023-04-12T06:01:49.156Z,0.54
2023-04-12T06:04:16.170Z,0.43
2023-04-12T06:06:43.040Z,0.34
2023-04-12T06:09:09.889Z,0.41
2023-04-12T06:11:36.694Z,2.07
2023-04-12T06:14:03.559Z,1.21
2023-04-12T06:16:30.357Z,2.22
2023-04-12T06:18:58.833Z,1.27
2023-04-12T06:21:25.901Z,1.93
2023-04-12T06:23:52.676Z,1.37
2023-04-12T06:26:19.458Z,1.08
2023-04-12T06:28:46.284Z,0.80
2023-04-12T06:31:13.212Z,0.47
2023-04-12T06:33:39.993Z,0.34
2023-04-12T06:36:09.499Z,0.26
2023-04-12T06:38:36.374Z,0.30
2023-04-12T06:41:03.852Z,0.25
2023-04-12T06:43:30.561Z,0.45
2023-04-12T06:45:57.368Z,1.02
2023-04-12T06:48:24.185Z,0.64
2023-04-12T06:50:51.058Z,0.39
2023-04-12T06:53:19.178Z,2.15
2023-04-12T06:55:45.987Z,1.66
2023-04-12T06:58:12.733Z,1.37
2023-04-12T07:00:39.494Z,1.33
2023-04-12T07:03:06.330Z,1.52
2023-04-12T07:05:33.048Z,0.90
2023-04-12T07:07:59.796Z,0.87
2023-04-12T07:10:28.011Z,0.61
2023-04-12T07:12:54.867Z,0.44
2023-04-12T07:15:21.625Z,0.33
2023-04-12T07:17:48.441Z,0.30
2023-04-12T07:20:15.349Z,0.53
2023-04-12T07:22:42.159Z,0.37
2023-04-12T07:25:09.316Z,0.37
2023-04-12T07:27:37.628Z,0.29
2023-04-12T07:30:04.975Z,0.68
2023-04-12T07:32:31.898Z,0.49
2023-04-12T07:34:58.750Z,0.42
2023-04-12T07:37:25.472Z,0.27
2023-04-12T07:39:52.210Z,0.28
2023-04-12T07:42:19.126Z,0.40
2023-04-12T07:44:47.292Z,0.35
2023-04-12T07:47:14.043Z,0.33
2023-04-12T07:49:40.773Z,0.28
2023-04-12T07:52:07.552Z,0.37
2023-04-12T07:54:34.289Z,3.46
2023-04-12T07:57:01.950Z,3.61
2023-04-12T07:59:28.730Z,4.88
2023-04-12T08:01:56.858Z,4.74
2023-04-12T08:04:23.867Z,3.76
2023-04-12T08:06:51.729Z,2.60
2023-04-12T08:09:18.630Z,1.94
2023-04-12T08:11:45.403Z,2.08
2023-04-12T08:14:12.214Z,2.04
2023-04-12T08:16:39.029Z,1.93
2023-04-12T08:19:07.428Z,2.20
2023-04-12T08:21:34.346Z,1.77
2023-04-12T08:24:01.070Z,1.26
2023-04-12T08:26:27.873Z,1.01
2023-04-12T08:28:54.863Z,2.11
2023-04-12T08:31:22.526Z,1.64
2023-04-12T08:33:49.357Z,1.06
2023-04-12T08:36:17.587Z,1.65
2023-04-12T08:38:46.462Z,1.05
2023-04-12T08:41:14.530Z,1.11
2023-04-12T08:43:44.093Z,1.03
2023-04-12T08:46:11.172Z,0.69
2023-04-12T08:48:39.757Z,0.88
2023-04-12T08:51:08.392Z,0.68
2023-04-12T08:53:36.625Z,0.96
2023-04-12T08:56:03.790Z,0.74
2023-04-12T08:58:31.177Z,0.54
2023-04-12T09:00:58.419Z,0.43
2023-04-12T09:03:25.557Z,1.14
2023-04-12T09:05:52.602Z,0.97
2023-04-12T09:08:19.459Z,0.83
2023-04-12T09:10:47.592Z,0.70
2023-04-12T09:13:14.406Z,0.74
2023-04-12T09:15:49.000Z,0.67
2023-04-12T09:18:17.393Z,1.14
2023-04-12T09:20:44.410Z,1.17
2023-04-12T09:23:18.710Z,1.32
2023-04-12T09:25:47.361Z,0.92
2023-04-12T09:28:23.053Z,0.73
2023-04-12T09:30:50.039Z,1.28
2023-04-12T09:33:16.948Z,1.70
2023-04-12T09:35:43.758Z,1.53
2023-04-12T09:38:11.336Z,1.34
2023-04-12T09:40:38.692Z,1.24
2023-04-12T09:43:07.502Z,1.07
2023-04-12T09:45:35.521Z,0.71
2023-04-12T09:48:02.437Z,1.02
2023-04-12T09:50:30.528Z,0.85
2023-04-12T09:52:58.130Z,1.08
2023-04-12T09:55:27.489Z,1.10
2023-04-12T09:57:55.920Z,0.82
2023-04-12T10:00:25.227Z,1.53
2023-04-12T10:02:53.667Z,1.05
2023-04-12T10:05:22.092Z,1.08
2023-04-12T10:07:50.241Z,1.49
2023-04-12T10:10:18.658Z,1.08
2023-04-12T10:12:47.166Z,0.94
2023-04-12T10:15:15.661Z,1.18
2023-04-12T10:17:45.383Z,1.84
2023-04-12T10:20:12.921Z,1.78
2023-04-12T10:22:41.536Z,1.09
2023-04-12T10:25:12.174Z,1.46
2023-04-12T10:27:40.533Z,1.01
2023-04-12T10:30:21.182Z,1.41
2023-04-12T10:32:50.299Z,1.65
2023-04-12T10:35:17.126Z,12.46
2023-04-12T10:38:00.115Z,6.95
2023-04-12T10:40:27.102Z,4.54
2023-04-12T10:43:26.906Z,2.69
2023-04-12T10:45:53.743Z,1.76
2023-04-12T10:48:32.060Z,1.80
2023-04-12T10:51:16.327Z,1.35
2023-04-12T10:53:43.623Z,1.00
2023-04-12T10:56:35.419Z,0.78
2023-04-12T10:59:03.097Z,0.55
2023-04-12T11:01:30.747Z,0.62
2023-04-12T11:04:16.335Z,0.86
2023-04-12T11:06:59.841Z,0.73
2023-04-12T11:09:28.360Z,0.83
2023-04-12T11:12:11.304Z,0.65
2023-04-12T11:14:43.445Z,1.52
2023-04-12T11:17:25.738Z,1.13
2023-04-12T11:19:56.416Z,0.84
2023-04-12T11:22:25.720Z,0.76
2023-04-12T11:24:54.008Z,0.64
2023-04-12T11:27:22.057Z,0.72
2023-04-12T11:29:49.969Z,0.97
2023-04-12T11:32:17.464Z,0.69
2023-04-12T11:34:45.778Z,0.60
2023-04-12T11:37:14.649Z,0.73
2023-04-12T11:39:42.648Z,0.58
2023-04-12T11:42:13.620Z,0.89
2023-04-12T11:44:55.142Z,1.08
2023-04-12T11:47:25.659Z,1.39
2023-04-12T11:49:53.858Z,1.20
2023-04-12T11:52:27.652Z,1.33
2023-04-12T11:54:54.573Z,1.00
2023-04-12T11:57:21.326Z,1.03
2023-04-12T11:59:49.134Z,1.39
2023-04-12T12:02:23.350Z,1.61
2023-04-12T12:04:52.051Z,1.74
2023-04-12T12:07:21.330Z,1.34
2023-04-12T12:09:50.520Z,1.09
2023-04-12T12:12:18.094Z,1.16
2023-04-12T12:14:46.526Z,1.15
2023-04-12T12:17:15.114Z,1.03
2023-04-12T12:19:43.631Z,2.41
2023-04-12T12:22:12.255Z,1.84
2023-04-12T12:24:42.191Z,1.53
2023-04-12T12:27:12.265Z,1.48
2023-04-12T12:29:39.530Z,1.61
2023-04-12T12:32:12.742Z,1.41
2023-04-12T12:34:40.927Z,1.08
2023-04-12T12:37:09.158Z,1.36
2023-04-12T12:39:35.908Z,1.40
2023-04-12T12:42:02.696Z,1.44
2023-04-12T12:44:30.860Z,1.40
2023-04-12T12:49:27.583Z,2.89
2023-04-12T12:51:54.530Z,2.42
2023-04-12T12:54:38.809Z,1.77
2023-04-12T12:57:07.708Z,1.58
2023-04-12T12:59:35.973Z,1.51
2023-04-12T13:02:02.939Z,1.82
2023-04-12T13:04:30.023Z,1.69
2023-04-12T13:06:56.902Z,2.08
2023-04-12T13:09:23.781Z,2.23
2023-04-12T13:11:50.484Z,1.65
2023-04-12T13:14:17.332Z,1.81
2023-04-12T13:16:45.477Z,1.58
2023-04-12T13:19:12.248Z,1.45
2023-04-12T13:21:38.961Z,1.60
2023-04-12T13:24:06.138Z,1.53
2023-04-12T13:26:32.861Z,2.17
2023-04-12T13:28:59.857Z,3.16
2023-04-12T13:31:29.226Z,2.18
2023-04-12T13:33:57.723Z,1.83
2023-04-12T13:36:24.471Z,1.71
2023-04-12T13:38:51.376Z,1.75
2023-04-12T13:41:18.144Z,1.88
2023-04-12T13:43:44.874Z,1.53
2023-04-12T13:46:11.609Z,2.28
2023-04-12T13:48:38.445Z,1.82
2023-04-12T13:51:07.170Z,2.06
2023-04-12T13:53:33.968Z,1.78
2023-04-12T13:56:00.713Z,1.47
2023-04-12T13:58:27.463Z,1.68
2023-04-12T14:00:54.326Z,1.88
2023-04-12T14:03:21.377Z,2.22
2023-04-12T14:05:48.210Z,1.91
2023-04-12T14:08:16.336Z,2.00
2023-04-12T14:10:43.143Z,1.58
2023-04-12T14:13:09.885Z,1.67
2023-04-12T14:15:36.621Z,1.23
2023-04-12T14:18:03.722Z,1.18
2023-04-12T14:20:30.456Z,1.26
2023-04-12T14:22:57.179Z,1.57
2023-04-12T14:25:25.369Z,3.10
2023-04-12T14:27:52.166Z,2.60
2023-04-12T14:30:19.257Z,1.92
2023-04-12T14:32:47.462Z,1.44
2023-04-12T14:35:14.682Z,1.78
2023-04-12T14:37:41.424Z,1.83
2023-04-12T14:40:09.037Z,2.65
2023-04-12T14:42:37.129Z,2.14
2023-04-12T14:45:04.464Z,2.04
2023-04-12T14:47:31.292Z,1.95
2023-04-12T14:49:58.159Z,1.61
2023-04-12T14:52:25.006Z,1.67
2023-04-12T14:54:51.999Z,1.34
2023-04-12T14:57:18.930Z,1.49
2023-04-12T14:59:47.061Z,2.04
2023-04-12T15:02:13.957Z,1.61
2023-04-12T15:04:40.748Z,1.39
2023-04-12T15:07:07.571Z,1.34
2023-04-12T15:09:34.391Z,1.61
2023-04-12T15:12:01.286Z,1.44
2023-04-12T15:14:28.392Z,1.41
2023-04-12T15:16:56.677Z,2.13
2023-04-12T15:19:23.821Z,1.89
2023-04-12T15:21:50.812Z,1.64
2023-04-12T15:24:17.547Z,1.31
2023-04-12T15:26:44.408Z,1.50
2023-04-12T15:29:11.185Z,1.50
2023-04-12T15:31:37.974Z,1.49
2023-04-12T15:34:06.144Z,1.48
2023-04-12T15:36:33.004Z,1.48
2023-04-12T15:38:59.896Z,1.34
2023-04-12T15:41:26.624Z,1.90
2023-04-12T15:43:53.382Z,1.88
2023-04-12T15:46:20.192Z,2.05
2023-04-12T15:48:47.023Z,1.59
2023-04-12T15:51:15.146Z,1.70
2023-04-12T15:53:41.900Z,1.60
2023-04-12T15:56:09.693Z,1.25
2023-04-12T15:58:36.440Z,1.32
2023-04-12T16:01:03.241Z,1.73
2023-04-12T16:03:30.079Z,1.55
2023-04-12T16:05:56.941Z,1.47
2023-04-12T16:08:25.160Z,1.33
2023-04-12T16:10:51.899Z,1.91
2023-04-12T16:13:18.949Z,1.90
2023-04-12T16:15:46.016Z,1.65
2023-04-12T16:18:13.177Z,1.81
2023-04-12T16:20:40.007Z,1.80
2023-04-12T16:23:06.955Z,1.81
2023-04-12T16:25:35.097Z,1.87
2023-04-12T16:28:01.890Z,1.49
2023-04-12T16:30:28.964Z,1.47
2023-04-12T16:32:55.776Z,2.28
2023-04-12T16:35:22.670Z,2.12
2023-04-12T16:37:49.405Z,1.94
2023-04-12T16:40:16.180Z,1.96
2023-04-12T16:42:44.835Z,1.82
2023-04-12T16:45:12.760Z,1.45
2023-04-12T16:47:39.752Z,1.79
2023-04-12T16:50:07.375Z,1.91
2023-04-12T16:52:34.312Z,2.10
2023-04-12T16:55:01.464Z,2.73
2023-04-12T16:57:28.261Z,2.22
2023-04-12T16:59:56.499Z,1.94
2023-04-12T17:02:23.390Z,1.77
2023-04-12T17:04:50.313Z,1.46
2023-04-12T17:07:17.057Z,1.48
2023-04-12T17:09:43.778Z,3.79
2023-04-12T17:12:10.553Z,2.99
2023-04-12T17:14:37.327Z,2.56
2023-04-12T17:17:06.711Z,2.63
2023-04-12T17:19:33.933Z,2.55
2023-04-12T17:22:00.872Z,2.95
2023-04-12T17:24:27.728Z,2.89
2023-04-12T17:26:54.520Z,3.32
2023-04-12T17:29:21.349Z,5.71
2023-04-12T17:31:48.457Z,4.81
2023-04-12T17:34:16.626Z,5.29
2023-04-12T17:36:43.489Z,4.04
2023-04-12T17:39:10.249Z,3.27
2023-04-12T17:41:37.092Z,2.96
2023-04-12T17:44:03.860Z,2.87
2023-04-12T17:46:30.576Z,3.37
2023-04-12T17:48:57.621Z,3.99
2023-04-12T17:51:25.943Z,4.21
2023-04-12T17:53:52.716Z,6.20
2023-04-12T17:56:19.451Z,7.57
2023-04-12T17:58:46.183Z,5.36
2023-04-12T18:01:12.932Z,4.90
2023-04-12T18:03:40.136Z,4.31
2023-04-12T18:06:07.262Z,4.38
2023-04-12T18:08:35.384Z,4.81
2023-04-12T18:11:02.170Z,4.64
2023-04-12T18:13:29.009Z,4.77
2023-04-12T18:15:55.786Z,4.63
2023-04-12T18:18:22.578Z,4.58
2023-04-12T18:20:49.303Z,4.08
2023-04-12T18:23:16.082Z,4.30
2023-04-12T18:25:44.307Z,4.12
2023-04-12T18:28:11.036Z,5.59
2023-04-12T18:30:37.771Z,4.85
2023-04-12T18:33:04.511Z,4.61
2023-04-12T18:35:31.324Z,4.32
2023-04-12T18:37:58.151Z,3.68
2023-04-12T18:40:24.883Z,4.70
2023-04-12T18:42:52.972Z,5.73
2023-04-12T18:45:19.838Z,5.59
2023-04-12T18:47:46.735Z,4.39
2023-04-12T18:50:13.670Z,4.21
2023-04-12T18:52:40.441Z,3.46
2023-04-12T18:55:08.308Z,4.46
2023-04-12T18:57:35.056Z,3.98
2023-04-12T19:00:03.530Z,3.67
2023-04-12T19:02:30.289Z,3.70
2023-04-12T19:04:57.200Z,3.72
2023-04-12T19:07:24.029Z,4.91
2023-04-12T19:09:50.767Z,4.97
2023-04-12T19:12:17.480Z,3.80
2023-04-12T19:14:44.201Z,3.33
2023-04-12T19:17:12.395Z,3.28
2023-04-12T19:19:39.189Z,2.96
2023-04-12T19:22:06.232Z,2.87
2023-04-12T19:24:33.027Z,2.33
2023-04-12T19:27:00.807Z,1.99
2023-04-12T19:29:28.943Z,2.02
2023-04-12T19:31:58.046Z,1.97
2023-04-12T19:34:26.269Z,3.24
2023-04-12T19:36:52.984Z,3.49
2023-04-12T19:39:19.710Z,2.75
2023-04-12T19:41:46.491Z,3.45
2023-04-12T19:44:13.249Z,3.53
2023-04-12T19:46:40.083Z,2.92
2023-04-12T19:49:06.823Z,3.25
2023-04-12T19:51:35.051Z,3.17
2023-04-12T19:54:01.962Z,3.20
2023-04-12T19:56:29.056Z,2.91
2023-04-12T19:58:56.099Z,2.93
2023-04-12T20:01:22.873Z,3.13
2023-04-12T20:03:49.650Z,2.51
2023-04-12T20:06:16.786Z,2.65
2023-04-12T20:08:44.987Z,3.23
2023-04-12T20:11:11.820Z,3.30
2023-04-12T20:13:38.641Z,3.13
2023-04-12T20:16:06.131Z,3.28
2023-04-12T20:18:32.949Z,2.64
2023-04-12T20:20:59.784Z,3.25
2023-04-12T20:23:26.637Z,3.10
2023-04-12T20:25:54.749Z,2.71
2023-04-12T20:28:21.495Z,3.38
2023-04-12T20:30:48.231Z,3.16
2023-04-12T20:33:15.065Z,3.56
2023-04-12T20:35:41.989Z,3.46
2023-04-12T20:38:08.714Z,3.19
2023-04-12T20:40:35.467Z,2.82
2023-04-12T20:43:03.700Z,3.06
2023-04-12T20:45:30.526Z,3.30
2023-04-12T20:47:57.402Z,3.05
2023-04-12T20:50:24.246Z,4.29
2023-04-12T20:52:51.231Z,3.45
2023-04-12T20:55:18.089Z,3.15
2023-04-12T20:57:44.872Z,3.74
2023-04-12T21:00:14.555Z,3.33
2023-04-12T21:02:41.431Z,3.24
2023-04-12T21:05:08.665Z,4.60
2023-04-12T21:07:35.396Z,4.65
2023-04-12T21:10:02.116Z,4.09
2023-04-12T21:12:28.913Z,4.64
2023-04-12T21:14:55.714Z,5.00
2023-04-12T21:17:23.881Z,4.42
2023-04-12T21:19:50.636Z,5.04
2023-04-12T21:22:17.419Z,4.69
2023-04-12T21:24:44.225Z,4.38
2023-04-12T21:27:11.001Z,4.34
2023-04-12T21:29:37.710Z,4.69
2023-04-12T21:32:05.052Z,4.55
2023-04-12T21:34:33.361Z,4.25
2023-04-12T21:37:00.530Z,4.19
2023-04-12T21:39:27.583Z,3.92
2023-04-12T21:41:55.105Z,3.50
2023-04-12T21:44:21.838Z,3.79
2023-04-12T21:46:48.595Z,3.30
2023-04-12T21:49:15.462Z,3.89
2023-04-12T21:51:46.023Z,5.81
2023-04-12T21:54:13.054Z,5.60
2023-04-12T21:56:39.899Z,5.44
2023-04-12T21:59:07.074Z,5.44
2023-04-12T22:01:34.160Z,5.62
2023-04-12T22:04:01.119Z,4.77
2023-04-12T22:06:27.891Z,5.38
2023-04-12T22:08:56.097Z,6.70
2023-04-12T22:11:22.833Z,5.92
2023-04-12T22:13:49.591Z,6.07
2023-04-12T22:16:16.352Z,5.27
2023-04-12T22:18:43.862Z,5.15
2023-04-12T22:21:10.667Z,5.18
2023-04-12T22:23:38.126Z,4.83
2023-04-12T22:26:08.140Z,4.97
2023-04-12T22:28:35.008Z,5.10
2023-04-12T22:31:02.314Z,5.71
2023-04-12T22:33:29.236Z,5.92
2023-04-12T22:35:56.006Z,5.67
2023-04-12T22:38:22.767Z,5.17
2023-04-12T22:40:49.618Z,5.37
2023-04-12T22:43:17.788Z,4.74
2023-04-12T22:45:44.635Z,5.03
2023-04-12T22:48:11.342Z,4.81
2023-04-12T22:50:38.032Z,4.36
2023-04-12T22:53:04.776Z,4.49
2023-04-12T22:55:31.606Z,4.70
2023-04-12T22:57:58.423Z,3.99
2023-04-12T23:00:26.486Z,3.93
2023-04-12T23:02:53.375Z,4.64
2023-04-12T23:05:20.497Z,4.80
2023-04-12T23:07:47.274Z,4.78
2023-04-12T23:10:14.043Z,5.21
2023-04-12T23:12:40.778Z,5.22
2023-04-12T23:15:08.672Z,6.08
2023-04-12T23:17:36.960Z,5.81
2023-04-12T23:20:04.081Z,5.79
2023-04-12T23:22:40.714Z,5.56
2023-04-12T23:25:17.627Z,5.48
2023-04-12T23:27:44.358Z,4.83
2023-04-12T23:30:12.420Z,3.99
2023-04-12T23:32:40.530Z,4.93
2023-04-12T23:35:08.089Z,5.04
2023-04-12T23:37:34.917Z,5.62
2023-04-12T23:40:01.949Z,6.16
2023-04-12T23:42:28.662Z,6.16
2023-04-12T23:44:55.368Z,6.88
2023-04-12T23:47:22.102Z,6.76
2023-04-12T23:49:50.264Z,7.23
2023-04-12T23:52:17.118Z,7.08
2023-04-12T23:54:43.915Z,6.13
2023-04-12T23:57:11.778Z,5.65
2023-04-12T23:59:38.673Z,5.72
